createdAt,value
2023-04-11T00:00:24.146Z,79.02
2023-04-11T00:02:50.667Z,79.06
2023-04-11T00:05:17.132Z,79.18
2023-04-11T00:07:43.686Z,79.19
2023-04-11T00:10:10.072Z,79.15
2023-04-11T00:12:36.621Z,79.14
2023-04-11T00:15:03.034Z,79.13
2023-04-11T00:17:29.597Z,79.25
2023-04-11T00:19:55.958Z,79.24
2023-04-11T00:22:22.490Z,79.21
2023-04-11T00:24:48.863Z,79.17
2023-04-11T00:27:15.243Z,79.89
2023-04-11T00:29:41.643Z,79.28
2023-04-11T00:32:08.161Z,79.15
2023-04-11T00:34:34.663Z,79.09
2023-04-11T00:37:01.083Z,79.17
2023-04-11T00:39:27.461Z,79.25
2023-04-11T00:41:53.931Z,78.99
2023-04-11T00:44:20.277Z,79.09
2023-04-11T00:46:46.680Z,79.10
2023-04-11T00:49:13.236Z,79.15
2023-04-11T00:51:39.586Z,79.22
2023-04-11T00:54:06.132Z,79.38
2023-04-11T00:56:32.479Z,79.31
2023-04-11T00:58:59.003Z,79.30
2023-04-11T01:01:25.614Z,79.33
2023-04-11T01:03:52.278Z,79.33
2023-04-11T01:06:18.740Z,79.33
2023-04-11T01:08:45.297Z,79.34
2023-04-11T01:11:11.688Z,79.34
2023-04-11T01:13:38.239Z,79.39
2023-04-11T01:16:04.608Z,79.41
2023-04-11T01:18:31.761Z,79.47
2023-04-11T01:20:58.156Z,79.36
2023-04-11T01:23:25.379Z,79.32
2023-04-11T01:25:51.721Z,79.24
2023-04-11T01:28:18.104Z,79.19
2023-04-11T01:30:44.491Z,79.11
2023-04-11T01:33:10.883Z,79.10
2023-04-11T01:35:37.271Z,79.27
2023-04-11T01:38:03.660Z,79.30
2023-04-11T01:40:30.005Z,79.30
2023-04-11T01:42:56.290Z,79.52
2023-04-11T01:45:22.673Z,79.60
2023-04-11T01:47:50.798Z,79.71
2023-04-11T01:50:17.357Z,79.68
2023-04-11T01:52:43.683Z,79.56
2023-04-11T01:55:10.252Z,79.61
2023-04-11T01:57:36.587Z,79.53
2023-04-11T02:00:02.935Z,79.92
2023-04-11T02:02:29.414Z,79.91
2023-04-11T02:04:56.082Z,80.19
2023-04-11T02:07:22.425Z,80.08
2023-04-11T02:09:51.675Z,80.14
2023-04-11T02:12:18.262Z,80.16
2023-04-11T02:14:44.620Z,80.17
2023-04-11T02:17:11.181Z,80.35
2023-04-11T02:19:37.761Z,80.50
2023-04-11T02:22:04.108Z,80.47
2023-04-11T02:24:30.656Z,80.59
2023-04-11T02:26:57.238Z,80.52
2023-04-11T02:29:24.366Z,80.52
2023-04-11T02:31:50.813Z,80.61
2023-04-11T02:34:17.187Z,80.55
2023-04-11T02:36:43.558Z,80.53
2023-04-11T02:39:10.125Z,80.56
2023-04-11T02:41:36.484Z,80.65
2023-04-11T02:44:03.088Z,80.89
2023-04-11T02:46:29.488Z,80.83
2023-04-11T02:48:56.083Z,81.80
2023-04-11T02:51:22.782Z,80.85
2023-04-11T02:53:49.154Z,80.98
2023-04-11T02:56:15.494Z,81.27
2023-04-11T02:58:53.223Z,81.27
2023-04-11T03:01:19.846Z,81.37
2023-04-11T03:03:46.278Z,81.44
2023-04-11T03:06:12.681Z,81.50
2023-04-11T03:08:39.064Z,81.38
2023-04-11T03:11:05.410Z,81.06
2023-04-11T03:13:31.974Z,81.30
2023-04-11T03:15:58.372Z,81.29
2023-04-11T03:18:24.736Z,81.32
2023-04-11T03:20:51.070Z,81.50
2023-04-11T03:23:17.409Z,81.54
2023-04-11T03:25:43.770Z,81.49
2023-04-11T03:28:10.136Z,81.49
2023-04-11T03:30:36.490Z,81.59
2023-04-11T03:33:02.877Z,81.50
2023-04-11T03:35:29.267Z,81.51
2023-04-11T03:37:55.900Z,81.46
2023-04-11T03:40:22.474Z,81.55
2023-04-11T03:42:48.808Z,81.51
2023-04-11T03:45:15.150Z,81.56
2023-04-11T03:47:41.498Z,81.64
2023-04-11T03:50:08.103Z,81.62
2023-04-11T03:52:34.466Z,81.53
2023-04-11T03:55:00.827Z,81.67
2023-04-11T03:57:27.159Z,81.55
2023-04-11T03:59:53.492Z,81.66
2023-04-11T04:02:19.930Z,81.66
2023-04-11T04:04:46.498Z,81.96
2023-04-11T04:07:12.929Z,81.92
2023-04-11T04:09:39.272Z,81.85
2023-04-11T04:12:05.669Z,81.76
2023-04-11T04:14:32.124Z,81.55
2023-04-11T04:16:58.511Z,81.47
2023-04-11T04:19:25.056Z,81.66
2023-04-11T04:21:51.599Z,81.63
2023-04-11T04:24:18.133Z,81.97
2023-04-11T04:26:44.471Z,81.87
2023-04-11T04:29:13.776Z,81.86
2023-04-11T04:31:40.909Z,82.01
2023-04-11T04:34:07.279Z,81.93
2023-04-11T04:36:33.834Z,81.92
2023-04-11T04:39:00.194Z,81.75
2023-04-11T04:41:26.537Z,81.84
2023-04-11T04:43:52.890Z,81.76
2023-04-11T04:46:19.540Z,81.83
2023-04-11T04:48:45.931Z,82.05
2023-04-11T04:51:12.481Z,82.02
2023-04-11T04:53:39.039Z,82.03
2023-04-11T04:56:06.289Z,81.87
2023-04-11T04:58:32.653Z,81.71
2023-04-11T05:00:59.168Z,81.75
2023-04-11T05:03:25.660Z,81.75
2023-04-11T05:05:53.925Z,81.77
2023-04-11T05:08:20.295Z,81.73
2023-04-11T05:10:46.667Z,81.73
2023-04-11T05:13:13.036Z,81.35
2023-04-11T05:15:39.387Z,81.61
2023-04-11T05:18:05.791Z,81.49
2023-04-11T05:20:32.157Z,81.39
2023-04-11T05:22:58.491Z,81.21
2023-04-11T05:25:24.884Z,81.55
2023-04-11T05:27:51.474Z,81.57
2023-04-11T05:30:17.799Z,81.25
2023-04-11T05:32:44.169Z,81.13
2023-04-11T05:35:10.568Z,81.04
2023-04-11T05:37:36.930Z,81.16
2023-04-11T05:40:03.326Z,80.89
2023-04-11T05:42:29.690Z,80.86
2023-04-11T05:44:56.053Z,81.01
2023-04-11T05:47:22.639Z,80.86
2023-04-11T05:49:49.052Z,80.67
2023-04-11T05:52:15.607Z,80.44
2023-04-11T05:54:41.928Z,80.45
2023-04-11T05:57:08.771Z,80.50
2023-04-11T05:59:35.130Z,80.47
2023-04-11T06:02:04.762Z,80.57
2023-04-11T06:04:31.408Z,80.46
2023-04-11T06:06:58.015Z,81.95
2023-04-11T06:09:24.368Z,81.52
2023-04-11T06:11:50.731Z,81.92
2023-04-11T06:14:17.054Z,81.36
2023-04-11T06:16:43.385Z,80.53
2023-04-11T06:19:09.741Z,81.84
2023-04-11T06:21:36.343Z,82.82
2023-04-11T06:24:02.689Z,82.19
2023-04-11T06:26:29.235Z,80.95
2023-04-11T06:28:55.562Z,80.75
2023-04-11T06:31:21.939Z,80.83
2023-04-11T06:33:49.215Z,80.37
2023-04-11T06:36:15.604Z,80.43
2023-04-11T06:38:43.473Z,80.56
2023-04-11T06:41:09.835Z,80.44
2023-04-11T06:43:36.183Z,80.39
2023-04-11T06:46:02.559Z,80.45
2023-04-11T06:51:13.123Z,80.40
2023-04-11T06:53:39.477Z,80.00
2023-04-11T06:56:06.076Z,80.28
2023-04-11T06:58:32.406Z,79.97
2023-04-11T07:00:58.764Z,80.16
2023-04-11T07:03:25.768Z,80.35
2023-04-11T07:05:52.258Z,80.38
2023-04-11T07:08:18.878Z,79.88
2023-04-11T07:10:45.236Z,80.16
2023-04-11T07:15:59.566Z,80.01
2023-04-11T07:18:25.900Z,79.97
2023-04-11T07:20:52.254Z,80.07
2023-04-11T07:26:02.535Z,80.10
2023-04-11T07:28:29.110Z,80.13
2023-04-11T07:30:55.449Z,79.91
2023-04-11T07:33:21.782Z,79.73
2023-04-11T07:35:48.948Z,79.84
2023-04-11T07:38:15.309Z,79.91
2023-04-11T07:40:41.627Z,79.91
2023-04-11T07:43:07.982Z,80.04
2023-04-11T07:45:34.620Z,79.92
2023-04-11T07:48:00.982Z,79.93
2023-04-11T07:50:27.364Z,79.96
2023-04-11T07:52:53.712Z,79.91
2023-04-11T07:55:20.064Z,79.90
2023-04-11T07:57:47.425Z,79.93
2023-04-11T08:00:13.793Z,80.13
2023-04-11T08:02:40.224Z,80.01
2023-04-11T08:05:07.012Z,80.17
2023-04-11T08:07:33.451Z,80.27
2023-04-11T08:09:59.794Z,80.07
2023-04-11T08:12:26.131Z,79.78
2023-04-11T08:14:52.725Z,79.87
2023-04-11T08:17:27.856Z,79.92
2023-04-11T08:19:54.799Z,79.95
2023-04-11T08:22:21.167Z,80.02
2023-04-11T08:24:47.948Z,80.03
2023-04-11T08:27:15.176Z,80.01
2023-04-11T08:29:41.573Z,79.95
2023-04-11T08:32:07.923Z,79.92
2023-04-11T08:34:34.251Z,79.97
2023-04-11T08:37:01.133Z,79.86
2023-04-11T08:39:27.495Z,79.76
2023-04-11T08:41:55.457Z,79.81
2023-04-11T08:44:21.815Z,79.73
2023-04-11T08:46:48.150Z,79.86
2023-04-11T08:49:15.013Z,79.74
2023-04-11T08:51:41.370Z,79.81
2023-04-11T08:54:07.709Z,79.98
2023-04-11T08:56:34.343Z,80.11
2023-04-11T08:59:00.674Z,80.12
2023-04-11T09:01:27.100Z,80.03
2023-04-11T09:03:53.572Z,80.04
2023-04-11T09:06:19.924Z,80.07
2023-04-11T09:08:46.497Z,80.14
2023-04-11T09:11:12.832Z,80.14
2023-04-11T09:13:39.168Z,80.15
2023-04-11T09:16:05.574Z,80.22
2023-04-11T09:18:31.965Z,80.23
2023-04-11T09:20:58.297Z,80.32
2023-04-11T09:23:27.128Z,80.38
2023-04-11T09:25:53.680Z,80.13
2023-04-11T09:28:20.022Z,80.17
2023-04-11T09:30:46.377Z,79.89
2023-04-11T09:33:12.771Z,79.69
2023-04-11T09:35:39.130Z,79.55
2023-04-11T09:38:05.509Z,79.41
2023-04-11T09:40:31.833Z,79.37
2023-04-11T09:42:58.193Z,79.23
2023-04-11T09:45:24.555Z,79.27
2023-04-11T09:47:51.155Z,79.41
2023-04-11T09:50:17.560Z,79.60
2023-04-11T09:52:43.949Z,79.53
2023-04-11T09:55:10.304Z,79.50
2023-04-11T09:57:36.634Z,79.42
2023-04-11T10:00:03.201Z,79.20
2023-04-11T10:02:29.675Z,78.96
2023-04-11T10:04:56.152Z,78.85
2023-04-11T10:07:22.497Z,78.51
2023-04-11T10:09:48.838Z,78.52
2023-04-11T10:12:15.236Z,78.46
2023-04-11T10:14:41.591Z,78.63
2023-04-11T10:17:07.974Z,79.03
2023-04-11T10:19:34.333Z,79.15
2023-04-11T10:22:00.682Z,79.54
2023-04-11T10:24:27.018Z,79.40
2023-04-11T10:26:53.350Z,77.76
2023-04-11T10:29:19.697Z,78.00
2023-04-11T10:31:46.098Z,77.91
2023-04-11T10:34:12.440Z,78.08
2023-04-11T10:36:38.763Z,77.92
2023-04-11T10:39:05.330Z,77.91
2023-04-11T10:41:31.918Z,78.01
2023-04-11T10:43:58.836Z,78.33
2023-04-11T10:46:25.417Z,78.26
2023-04-11T10:48:51.817Z,78.26
2023-04-11T10:51:18.157Z,78.42
2023-04-11T10:53:44.479Z,78.50
2023-04-11T10:56:10.814Z,78.58
2023-04-11T10:58:37.155Z,78.56
2023-04-11T11:01:03.624Z,78.80
2023-04-11T11:03:30.217Z,78.85
2023-04-11T11:05:56.683Z,78.95
2023-04-11T11:08:23.034Z,79.20
2023-04-11T11:10:49.391Z,79.28
2023-04-11T11:13:15.722Z,79.06
2023-04-11T11:15:42.052Z,79.08
2023-04-11T11:18:08.457Z,79.13
2023-04-11T11:20:35.220Z,78.68
2023-04-11T11:23:01.554Z,78.63
2023-04-11T11:25:27.898Z,78.68
2023-04-11T11:27:54.223Z,78.94
2023-04-11T11:30:20.499Z,78.88
2023-04-11T11:32:46.854Z,78.74
2023-04-11T11:35:13.210Z,78.79
2023-04-11T11:37:39.756Z,78.86
2023-04-11T11:40:06.076Z,78.87
2023-04-11T11:42:32.411Z,78.93
2023-04-11T11:44:58.767Z,78.73
2023-04-11T11:47:25.116Z,78.73
2023-04-11T11:49:51.498Z,78.66
2023-04-11T11:52:17.833Z,78.67
2023-04-11T11:54:44.239Z,78.83
2023-04-11T11:57:10.599Z,79.00
2023-04-11T11:59:36.933Z,79.22
2023-04-11T12:02:03.364Z,79.14
2023-04-11T12:04:29.907Z,79.13
2023-04-11T12:06:56.364Z,79.11
2023-04-11T12:09:22.716Z,79.01
2023-04-11T12:11:49.045Z,78.88
2023-04-11T12:14:15.378Z,78.77
2023-04-11T12:16:41.710Z,78.59
2023-04-11T12:19:08.048Z,78.28
2023-04-11T12:21:34.397Z,77.70
2023-04-11T12:24:00.737Z,77.42
2023-04-11T12:26:27.087Z,77.47
2023-04-11T12:28:53.415Z,77.44
2023-04-11T12:31:20.136Z,77.54
2023-04-11T12:33:46.588Z,77.74
2023-04-11T12:36:12.918Z,77.85
2023-04-11T12:38:39.249Z,78.25
2023-04-11T12:41:30.372Z,78.40
2023-04-11T12:43:51.896Z,78.43
2023-04-11T12:46:18.262Z,78.47
2023-04-11T12:48:44.658Z,78.47
2023-04-11T12:51:11.018Z,78.44
2023-04-11T12:53:37.602Z,78.51
2023-04-11T12:56:03.978Z,78.47
2023-04-11T12:58:30.331Z,78.40
2023-04-11T13:00:56.678Z,78.33
2023-04-11T13:03:23.182Z,78.23
2023-04-11T13:05:49.710Z,78.25
2023-04-11T13:08:16.062Z,78.16
2023-04-11T13:10:42.643Z,78.21
2023-04-11T13:13:17.993Z,77.79
2023-04-11T13:15:45.291Z,77.77
2023-04-11T13:18:11.661Z,77.70
2023-04-11T13:20:38.018Z,77.70
2023-04-11T13:23:04.356Z,77.69
2023-04-11T13:25:30.692Z,77.78
2023-04-11T13:27:57.040Z,77.80
2023-04-11T13:30:23.383Z,77.75
2023-04-11T13:32:49.780Z,77.82
2023-04-11T13:35:16.157Z,78.02
2023-04-11T13:37:42.724Z,77.84
2023-04-11T13:40:09.075Z,77.83
2023-04-11T13:42:35.617Z,77.84
2023-04-11T13:45:02.056Z,77.96
2023-04-11T13:47:28.530Z,77.81
2023-04-11T13:49:54.902Z,77.65
2023-04-11T13:52:21.256Z,77.70
2023-04-11T13:54:47.613Z,77.79
2023-04-11T13:57:13.972Z,77.92
2023-04-11T13:59:40.376Z,77.81
2023-04-11T14:02:06.746Z,78.01
2023-04-11T14:04:33.438Z,78.16
2023-04-11T14:06:59.852Z,78.21
2023-04-11T14:09:26.228Z,78.41
2023-04-11T14:11:52.572Z,78.57
2023-04-11T14:14:18.907Z,78.46
2023-04-11T14:16:45.292Z,78.46
2023-04-11T14:19:11.702Z,78.54
2023-04-11T14:21:38.290Z,78.60
2023-04-11T14:24:04.635Z,78.74
2023-04-11T14:26:31.228Z,78.83
2023-04-11T14:28:57.616Z,78.95
2023-04-11T14:31:24.068Z,78.92
2023-04-11T14:33:50.490Z,79.04
2023-04-11T14:36:16.827Z,79.03
2023-04-11T14:38:43.175Z,78.90
2023-04-11T14:41:09.536Z,78.41
2023-04-11T14:43:35.892Z,78.07
2023-04-11T14:46:02.252Z,70.57
2023-04-11T14:48:28.607Z,69.09
2023-04-11T14:50:54.960Z,69.46
2023-04-11T14:53:21.333Z,70.22
2023-04-11T14:55:47.684Z,68.84
2023-04-11T14:58:14.026Z,66.90
2023-04-11T15:00:40.406Z,67.25
2023-04-11T15:03:06.804Z,68.01
2023-04-11T15:05:33.309Z,66.83
2023-04-11T15:07:59.888Z,67.47
2023-04-11T15:10:26.244Z,66.41
2023-04-11T15:12:52.588Z,68.13
2023-04-11T15:15:18.930Z,66.63
2023-04-11T15:17:45.343Z,68.27
2023-04-11T15:20:11.940Z,67.45
2023-04-11T15:22:39.476Z,64.09
2023-04-11T15:25:07.157Z,65.34
2023-04-11T15:27:33.535Z,63.55
2023-04-11T15:29:59.899Z,63.94
2023-04-11T15:32:26.287Z,64.95
2023-04-11T15:34:52.695Z,66.16
2023-04-11T15:37:19.279Z,65.05
2023-04-11T15:39:45.639Z,65.51
2023-04-11T15:42:11.991Z,65.82
2023-04-11T15:44:38.355Z,67.23
2023-04-11T15:47:04.796Z,66.29
2023-04-11T15:49:31.450Z,66.18
2023-04-11T15:51:57.795Z,65.94
2023-04-11T15:54:24.144Z,63.70
2023-04-11T15:56:50.471Z,63.55
2023-04-11T15:59:16.792Z,62.39
2023-04-11T16:01:43.186Z,62.39
2023-04-11T16:04:09.689Z,62.08
2023-04-11T16:06:36.338Z,62.94
2023-04-11T16:09:02.688Z,64.42
2023-04-11T16:11:29.036Z,64.85
2023-04-11T16:13:55.688Z,63.76
2023-04-11T16:16:22.172Z,62.85
2023-04-11T16:18:48.515Z,62.57
2023-04-11T16:21:14.899Z,62.31
2023-04-11T16:23:41.456Z,61.75
2023-04-11T16:26:07.809Z,61.29
2023-04-11T16:28:34.163Z,61.08
2023-04-11T16:31:00.565Z,60.21
2023-04-11T16:33:26.929Z,61.36
2023-04-11T16:35:53.293Z,60.06
2023-04-11T16:38:19.694Z,59.58
2023-04-11T16:40:46.019Z,59.36
2023-04-11T16:43:12.527Z,59.79
2023-04-11T16:45:39.099Z,60.70
2023-04-11T16:48:05.496Z,59.86
2023-04-11T16:50:31.841Z,60.62
2023-04-11T16:52:58.178Z,61.32
2023-04-11T16:55:24.553Z,61.51
2023-04-11T16:57:51.255Z,62.30
2023-04-11T17:00:17.678Z,64.41
2023-04-11T17:02:44.392Z,63.14
2023-04-11T17:05:11.021Z,64.20
2023-04-11T17:07:37.401Z,64.37
2023-04-11T17:10:03.780Z,65.29
2023-04-11T17:12:30.126Z,65.66
2023-04-11T17:14:56.470Z,65.57
2023-04-11T17:17:22.889Z,66.91
2023-04-11T17:19:49.576Z,65.99
2023-04-11T17:22:15.943Z,66.28
2023-04-11T17:24:42.287Z,67.06
2023-04-11T17:27:08.640Z,67.08
2023-04-11T17:29:35.021Z,67.05
2023-04-11T17:32:01.373Z,67.12
2023-04-11T17:34:27.720Z,67.73
2023-04-11T17:36:54.443Z,68.65
2023-04-11T17:39:20.807Z,69.22
2023-04-11T17:41:47.179Z,71.44
2023-04-11T17:44:13.900Z,71.24
2023-04-11T17:46:40.394Z,70.96
2023-04-11T17:49:06.783Z,70.92
2023-04-11T17:51:33.202Z,71.06
2023-04-11T17:53:59.842Z,71.44
2023-04-11T17:56:26.418Z,72.07
2023-04-11T17:58:52.768Z,72.55
2023-04-11T18:01:19.162Z,72.71
2023-04-11T18:03:45.571Z,72.97
2023-04-11T18:06:12.011Z,73.33
2023-04-11T18:08:50.585Z,73.75
2023-04-11T18:11:17.653Z,73.82
2023-04-11T18:13:44.040Z,73.91
2023-04-11T18:16:10.622Z,73.95
2023-04-11T18:18:36.984Z,74.12
2023-04-11T18:21:06.498Z,74.24
2023-04-11T18:23:34.044Z,74.36
2023-04-11T18:26:00.383Z,74.54
2023-04-11T18:28:26.731Z,74.69
2023-04-11T18:30:53.566Z,74.90
2023-04-11T18:33:20.773Z,74.90
2023-04-11T18:35:47.380Z,74.96
2023-04-11T18:38:13.757Z,74.97
2023-04-11T18:40:40.104Z,75.06
2023-04-11T18:43:06.459Z,75.20
2023-04-11T18:45:32.850Z,75.33
2023-04-11T18:47:59.349Z,75.95
2023-04-11T18:50:25.760Z,76.24
2023-04-11T18:52:55.458Z,76.26
2023-04-11T18:55:22.861Z,76.56
2023-04-11T18:57:51.389Z,76.81
2023-04-11T19:00:19.923Z,77.25
2023-04-11T19:02:46.486Z,77.60
2023-04-11T19:05:13.616Z,77.51
2023-04-11T19:07:40.254Z,77.82
2023-04-11T19:10:06.625Z,77.90
2023-04-11T19:12:32.959Z,77.89
2023-04-11T19:14:59.316Z,78.23
2023-04-11T19:17:25.683Z,78.04
2023-04-11T19:19:52.051Z,78.05
2023-04-11T19:22:18.411Z,78.44
2023-04-11T19:24:44.762Z,78.27
2023-04-11T19:27:11.123Z,78.48
2023-04-11T19:29:37.534Z,78.61
2023-04-11T19:32:03.938Z,78.49
2023-04-11T19:34:30.375Z,78.53
2023-04-11T19:36:56.728Z,78.57
2023-04-11T19:39:23.063Z,78.63
2023-04-11T19:41:49.397Z,78.85
2023-04-11T19:44:15.728Z,78.90
2023-04-11T19:46:42.295Z,78.70
2023-04-11T19:49:08.652Z,79.10
2023-04-11T19:51:35.202Z,79.15
2023-04-11T19:54:01.524Z,79.00
2023-04-11T19:56:27.849Z,78.88
2023-04-11T19:58:54.853Z,78.93
2023-04-11T20:01:21.219Z,79.23
2023-04-11T20:03:47.693Z,79.03
2023-04-11T20:06:14.134Z,79.42
2023-04-11T20:08:40.727Z,79.08
2023-04-11T20:11:07.089Z,79.23
2023-04-11T20:13:33.445Z,79.08
2023-04-11T20:15:59.789Z,79.39
2023-04-11T20:18:26.142Z,79.40
2023-04-11T20:20:52.490Z,79.51
2023-04-11T20:23:18.845Z,79.45
2023-04-11T20:25:45.215Z,79.57
2023-04-11T20:28:11.574Z,79.67
2023-04-11T20:30:37.964Z,79.74
2023-04-11T20:33:04.377Z,79.54
2023-04-11T20:35:30.983Z,80.06
2023-04-11T20:37:57.377Z,79.75
2023-04-11T20:40:23.727Z,79.78
2023-04-11T20:42:50.093Z,79.92
2023-04-11T20:45:16.832Z,79.85
2023-04-11T20:47:43.248Z,80.04
2023-04-11T20:50:09.837Z,79.91
2023-04-11T20:52:36.157Z,80.12
2023-04-11T20:55:02.492Z,79.99
2023-04-11T20:57:28.849Z,80.17
2023-04-11T20:59:55.211Z,80.07
2023-04-11T21:02:21.733Z,80.06
2023-04-11T21:04:48.420Z,80.21
2023-04-11T21:07:14.806Z,80.38
2023-04-11T21:09:41.168Z,80.30
2023-04-11T21:12:07.494Z,80.32
2023-04-11T21:14:34.043Z,80.61
2023-04-11T21:17:00.372Z,80.47
2023-04-11T21:19:26.729Z,80.58
2023-04-11T21:21:53.102Z,80.61
2023-04-11T21:24:19.462Z,80.56
2023-04-11T21:26:45.854Z,80.70
2023-04-11T21:29:12.216Z,80.66
2023-04-11T21:31:38.585Z,80.66
2023-04-11T21:34:04.985Z,80.80
2023-04-11T21:36:31.315Z,80.77
2023-04-11T21:38:57.669Z,80.83
2023-04-11T21:41:24.005Z,80.87
2023-04-11T21:43:50.325Z,80.84
2023-04-11T21:46:16.919Z,80.97
2023-04-11T21:48:43.296Z,80.90
2023-04-11T21:51:09.627Z,80.94
2023-04-11T21:53:35.967Z,81.13
2023-04-11T21:56:02.333Z,80.99
2023-04-11T21:58:29.921Z,81.07
2023-04-11T22:00:56.668Z,81.05
2023-04-11T22:03:23.681Z,80.99
2023-04-11T22:05:50.481Z,81.01
2023-04-11T22:08:16.904Z,81.13
2023-04-11T22:10:47.588Z,81.10
2023-04-11T22:13:14.580Z,81.17
2023-04-11T22:15:41.111Z,81.25
2023-04-11T22:18:07.731Z,81.19
2023-04-11T22:20:34.395Z,81.26
2023-04-11T22:23:00.747Z,81.16
2023-04-11T22:25:27.106Z,81.23
2023-04-11T22:27:53.471Z,81.20
2023-04-11T22:30:19.833Z,81.31
2023-04-11T22:32:46.194Z,81.30
2023-04-11T22:35:12.614Z,81.38
2023-04-11T22:37:38.949Z,81.37
2023-04-11T22:40:05.313Z,81.36
2023-04-11T22:42:31.675Z,81.39
2023-04-11T22:44:58.215Z,81.48
2023-04-11T22:47:24.634Z,81.50
2023-04-11T22:49:51.019Z,81.47
2023-04-11T22:52:17.362Z,81.48
2023-04-11T22:54:43.919Z,81.51
2023-04-11T22:57:10.503Z,81.53
2023-04-11T22:59:36.863Z,81.69
2023-04-11T23:02:03.331Z,81.60
2023-04-11T23:04:29.794Z,81.58
2023-04-11T23:06:56.159Z,81.57
2023-04-11T23:09:22.507Z,81.66
2023-04-11T23:11:49.081Z,81.66
2023-04-11T23:14:15.562Z,81.70
2023-04-11T23:16:42.017Z,81.65
2023-04-11T23:19:08.413Z,81.62
2023-04-11T23:21:34.742Z,81.71
2023-04-11T23:24:01.063Z,81.75
2023-04-11T23:26:27.380Z,81.76
2023-04-11T23:28:53.738Z,81.76
2023-04-11T23:31:20.122Z,81.83
2023-04-11T23:33:46.513Z,81.82
2023-04-11T23:36:12.896Z,81.78
2023-04-11T23:38:39.294Z,81.75
2023-04-11T23:41:05.659Z,81.86
2023-04-11T23:43:31.994Z,81.84
2023-04-11T23:45:58.392Z,81.95
2023-04-11T23:48:24.827Z,81.89
2023-04-11T23:50:51.182Z,82.00
2023-04-11T23:53:17.509Z,81.93
2023-04-11T23:55:43.900Z,81.91
2023-04-11T23:58:10.227Z,81.93
